sensor_id;sensor_type;location;lat;lon;timestamp;P1;durP1;ratioP1;P2;durP2;ratioP2
21128;SDS011;10722;51.910;8.352;2024-01-07T00:01:30;35.63;;;21.37;;
21128;SDS011;10722;51.910;8.352;2024-01-07T00:04:15;35.93;;;21.57;;
21128;SDS011;10722;51.910;8.352;2024-01-07T00:07:01;35.70;;;20.53;;
21128;SDS011;10722;51.910;8.352;2024-01-07T00:09:46;37.73;;;22.17;;
21128;SDS011;10722;51.910;8.352;2024-01-07T00:12:31;33.73;;;20.23;;
21128;SDS011;10722;51.910;8.352;2024-01-07T00:15:16;37.40;;;22.30;;
21128;SDS011;10722;51.910;8.352;2024-01-07T00:18:01;36.23;;;20.97;;
21128;SDS011;10722;51.910;8.352;2024-01-07T00:20:47;34.43;;;20.80;;
21128;SDS011;10722;51.910;8.352;2024-01-07T00:23:32;36.43;;;20.63;;
21128;SDS011;10722;51.910;8.352;2024-01-07T00:26:18;34.13;;;20.80;;
21128;SDS011;10722;51.910;8.352;2024-01-07T00:29:03;36.57;;;20.70;;
21128;SDS011;10722;51.910;8.352;2024-01-07T00:31:48;35.87;;;20.23;;
21128;SDS011;10722;51.910;8.352;2024-01-07T00:34:33;34.10;;;20.30;;
21128;SDS011;10722;51.910;8.352;2024-01-07T00:37:18;36.27;;;20.97;;
21128;SDS011;10722;51.910;8.352;2024-01-07T00:40:04;36.60;;;21.73;;
21128;SDS011;10722;51.910;8.352;2024-01-07T00:42:50;33.90;;;20.90;;
21128;SDS011;10722;51.910;8.352;2024-01-07T00:45:35;35.60;;;20.53;;
21128;SDS011;10722;51.910;8.352;2024-01-07T00:48:20;34.70;;;20.50;;
21128;SDS011;10722;51.910;8.352;2024-01-07T00:51:05;37.73;;;21.47;;
21128;SDS011;10722;51.910;8.352;2024-01-07T00:53:50;35.73;;;21.03;;
21128;SDS011;10722;51.910;8.352;2024-01-07T00:56:35;33.80;;;19.90;;
21128;SDS011;10722;51.910;8.352;2024-01-07T00:59:20;36.80;;;20.83;;
21128;SDS011;10722;51.910;8.352;2024-01-07T01:02:06;34.90;;;19.87;;
21128;SDS011;10722;51.910;8.352;2024-01-07T01:04:50;34.30;;;20.87;;
21128;SDS011;10722;51.910;8.352;2024-01-07T01:07:36;37.50;;;20.80;;
21128;SDS011;10722;51.910;8.352;2024-01-07T01:10:21;34.67;;;20.83;;
21128;SDS011;10722;51.910;8.352;2024-01-07T01:13:06;39.27;;;21.20;;
21128;SDS011;10722;51.910;8.352;2024-01-07T01:15:51;38.17;;;21.43;;
21128;SDS011;10722;51.910;8.352;2024-01-07T01:18:36;35.77;;;21.33;;
21128;SDS011;10722;51.910;8.352;2024-01-07T01:21:22;37.87;;;21.50;;
21128;SDS011;10722;51.910;8.352;2024-01-07T01:24:07;37.47;;;21.00;;
21128;SDS011;10722;51.910;8.352;2024-01-07T01:26:52;39.50;;;22.87;;
21128;SDS011;10722;51.910;8.352;2024-01-07T01:29:37;38.00;;;22.03;;
21128;SDS011;10722;51.910;8.352;2024-01-07T01:32:22;38.90;;;22.67;;
21128;SDS011;10722;51.910;8.352;2024-01-07T01:35:07;38.60;;;21.97;;
21128;SDS011;10722;51.910;8.352;2024-01-07T01:37:53;37.13;;;22.30;;
21128;SDS011;10722;51.910;8.352;2024-01-07T01:40:37;37.63;;;22.07;;
21128;SDS011;10722;51.910;8.352;2024-01-07T01:43:23;37.87;;;23.17;;
21128;SDS011;10722;51.910;8.352;2024-01-07T01:46:09;38.30;;;22.07;;
21128;SDS011;10722;51.910;8.352;2024-01-07T01:48:57;38.90;;;21.77;;
21128;SDS011;10722;51.910;8.352;2024-01-07T01:51:43;38.73;;;22.47;;
21128;SDS011;10722;51.910;8.352;2024-01-07T01:54:29;38.97;;;22.20;;
21128;SDS011;10722;51.910;8.352;2024-01-07T01:57:15;37.73;;;21.47;;
21128;SDS011;10722;51.910;8.352;2024-01-07T02:00:04;36.70;;;21.07;;
21128;SDS011;10722;51.910;8.352;2024-01-07T02:02:50;37.57;;;21.23;;
21128;SDS011;10722;51.910;8.352;2024-01-07T02:05:35;36.20;;;19.80;;
21128;SDS011;10722;51.910;8.352;2024-01-07T02:08:20;36.77;;;19.93;;
21128;SDS011;10722;51.910;8.352;2024-01-07T02:14:04;33.77;;;19.07;;
21128;SDS011;10722;51.910;8.352;2024-01-07T02:16:49;34.90;;;19.13;;
21128;SDS011;10722;51.910;8.352;2024-01-07T02:19:34;31.97;;;18.40;;
21128;SDS011;10722;51.910;8.352;2024-01-07T02:22:19;31.23;;;18.30;;
21128;SDS011;10722;51.910;8.352;2024-01-07T02:25:04;32.63;;;19.50;;
21128;SDS011;10722;51.910;8.352;2024-01-07T02:27:50;34.50;;;18.40;;
21128;SDS011;10722;51.910;8.352;2024-01-07T02:30:35;32.50;;;18.77;;
21128;SDS011;10722;51.910;8.352;2024-01-07T02:33:20;29.40;;;16.60;;
21128;SDS011;10722;51.910;8.352;2024-01-07T02:36:06;26.83;;;15.40;;
21128;SDS011;10722;51.910;8.352;2024-01-07T02:38:51;28.87;;;15.80;;
21128;SDS011;10722;51.910;8.352;2024-01-07T02:41:36;28.67;;;15.80;;
21128;SDS011;10722;51.910;8.352;2024-01-07T02:44:21;30.87;;;16.33;;
21128;SDS011;10722;51.910;8.352;2024-01-07T02:47:06;27.93;;;16.13;;
21128;SDS011;10722;51.910;8.352;2024-01-07T02:49:51;27.60;;;15.10;;
21128;SDS011;10722;51.910;8.352;2024-01-07T02:52:37;30.37;;;16.00;;
21128;SDS011;10722;51.910;8.352;2024-01-07T02:55:22;26.97;;;15.07;;
21128;SDS011;10722;51.910;8.352;2024-01-07T02:58:07;28.37;;;15.93;;
21128;SDS011;10722;51.910;8.352;2024-01-07T03:01:07;28.73;;;15.87;;
21128;SDS011;10722;51.910;8.352;2024-01-07T03:03:53;27.77;;;15.97;;
21128;SDS011;10722;51.910;8.352;2024-01-07T03:06:38;28.50;;;14.70;;
21128;SDS011;10722;51.910;8.352;2024-01-07T03:09:24;27.17;;;15.43;;
21128;SDS011;10722;51.910;8.352;2024-01-07T03:12:09;27.40;;;15.17;;
21128;SDS011;10722;51.910;8.352;2024-01-07T03:14:54;31.00;;;15.10;;
21128;SDS011;10722;51.910;8.352;2024-01-07T03:17:39;28.80;;;15.47;;
21128;SDS011;10722;51.910;8.352;2024-01-07T03:20:25;28.10;;;15.53;;
21128;SDS011;10722;51.910;8.352;2024-01-07T03:23:10;28.70;;;16.23;;
21128;SDS011;10722;51.910;8.352;2024-01-07T03:25:57;29.87;;;15.80;;
21128;SDS011;10722;51.910;8.352;2024-01-07T03:28:43;31.03;;;16.13;;
21128;SDS011;10722;51.910;8.352;2024-01-07T03:31:28;28.73;;;16.50;;
21128;SDS011;10722;51.910;8.352;2024-01-07T03:34:14;28.70;;;16.10;;
21128;SDS011;10722;51.910;8.352;2024-01-07T03:36:59;30.10;;;16.13;;
21128;SDS011;10722;51.910;8.352;2024-01-07T03:39:47;30.73;;;16.53;;
21128;SDS011;10722;51.910;8.352;2024-01-07T03:42:32;32.47;;;18.23;;
21128;SDS011;10722;51.910;8.352;2024-01-07T03:45:17;30.87;;;16.53;;
21128;SDS011;10722;51.910;8.352;2024-01-07T03:48:02;30.83;;;17.57;;
21128;SDS011;10722;51.910;8.352;2024-01-07T03:50:48;29.17;;;15.67;;
21128;SDS011;10722;51.910;8.352;2024-01-07T03:53:33;30.00;;;16.50;;
21128;SDS011;10722;51.910;8.352;2024-01-07T03:56:18;34.20;;;17.37;;
21128;SDS011;10722;51.910;8.352;2024-01-07T03:59:03;32.40;;;17.60;;
21128;SDS011;10722;51.910;8.352;2024-01-07T04:01:48;31.63;;;17.83;;
21128;SDS011;10722;51.910;8.352;2024-01-07T04:04:33;33.80;;;18.20;;
21128;SDS011;10722;51.910;8.352;2024-01-07T04:07:19;32.07;;;17.47;;
21128;SDS011;10722;51.910;8.352;2024-01-07T04:10:04;29.83;;;16.20;;
21128;SDS011;10722;51.910;8.352;2024-01-07T04:12:49;29.93;;;16.83;;
21128;SDS011;10722;51.910;8.352;2024-01-07T04:15:34;31.23;;;16.43;;
21128;SDS011;10722;51.910;8.352;2024-01-07T04:18:20;30.37;;;15.43;;
21128;SDS011;10722;51.910;8.352;2024-01-07T04:21:08;29.70;;;16.83;;
21128;SDS011;10722;51.910;8.352;2024-01-07T04:23:54;30.73;;;17.03;;
21128;SDS011;10722;51.910;8.352;2024-01-07T04:26:39;28.43;;;14.73;;
21128;SDS011;10722;51.910;8.352;2024-01-07T04:29:24;28.10;;;15.50;;
21128;SDS011;10722;51.910;8.352;2024-01-07T04:32:09;27.93;;;15.13;;
21128;SDS011;10722;51.910;8.352;2024-01-07T04:34:54;29.43;;;15.50;;
21128;SDS011;10722;51.910;8.352;2024-01-07T04:37:39;29.53;;;15.47;;
21128;SDS011;10722;51.910;8.352;2024-01-07T04:40:24;26.57;;;14.43;;
21128;SDS011;10722;51.910;8.352;2024-01-07T04:43:09;26.83;;;14.27;;
21128;SDS011;10722;51.910;8.352;2024-01-07T04:45:54;26.50;;;14.57;;
21128;SDS011;10722;51.910;8.352;2024-01-07T04:48:40;27.50;;;14.30;;
21128;SDS011;10722;51.910;8.352;2024-01-07T04:51:25;26.90;;;14.73;;
21128;SDS011;10722;51.910;8.352;2024-01-07T04:54:10;27.83;;;15.10;;
21128;SDS011;10722;51.910;8.352;2024-01-07T04:56:55;26.37;;;14.83;;
21128;SDS011;10722;51.910;8.352;2024-01-07T04:59:40;27.20;;;14.80;;
21128;SDS011;10722;51.910;8.352;2024-01-07T05:02:25;27.67;;;14.37;;
21128;SDS011;10722;51.910;8.352;2024-01-07T05:05:10;25.77;;;13.83;;
21128;SDS011;10722;51.910;8.352;2024-01-07T05:07:55;27.30;;;13.90;;
21128;SDS011;10722;51.910;8.352;2024-01-07T05:10:40;24.67;;;12.83;;
21128;SDS011;10722;51.910;8.352;2024-01-07T05:13:25;25.80;;;13.20;;
21128;SDS011;10722;51.910;8.352;2024-01-07T05:16:17;24.77;;;12.70;;
21128;SDS011;10722;51.910;8.352;2024-01-07T05:19:03;24.37;;;13.03;;
21128;SDS011;10722;51.910;8.352;2024-01-07T05:21:48;29.20;;;15.20;;
21128;SDS011;10722;51.910;8.352;2024-01-07T05:24:36;26.60;;;14.63;;
21128;SDS011;10722;51.910;8.352;2024-01-07T05:27:22;28.90;;;14.80;;
21128;SDS011;10722;51.910;8.352;2024-01-07T05:30:07;32.93;;;18.07;;
21128;SDS011;10722;51.910;8.352;2024-01-07T05:32:52;27.57;;;14.07;;
21128;SDS011;10722;51.910;8.352;2024-01-07T05:35:37;27.40;;;14.93;;
21128;SDS011;10722;51.910;8.352;2024-01-07T05:38:22;27.37;;;13.90;;
21128;SDS011;10722;51.910;8.352;2024-01-07T05:41:08;27.73;;;13.87;;
21128;SDS011;10722;51.910;8.352;2024-01-07T05:43:53;29.50;;;14.73;;
21128;SDS011;10722;51.910;8.352;2024-01-07T05:46:38;27.60;;;14.30;;
21128;SDS011;10722;51.910;8.352;2024-01-07T05:49:23;27.17;;;13.73;;
21128;SDS011;10722;51.910;8.352;2024-01-07T05:52:09;24.67;;;13.77;;
21128;SDS011;10722;51.910;8.352;2024-01-07T05:54:54;25.90;;;13.40;;
21128;SDS011;10722;51.910;8.352;2024-01-07T05:57:39;23.93;;;12.30;;
21128;SDS011;10722;51.910;8.352;2024-01-07T06:00:24;25.53;;;12.40;;
21128;SDS011;10722;51.910;8.352;2024-01-07T06:03:10;25.13;;;13.07;;
21128;SDS011;10722;51.910;8.352;2024-01-07T06:05:55;25.17;;;12.67;;
21128;SDS011;10722;51.910;8.352;2024-01-07T06:08:43;27.53;;;13.30;;
21128;SDS011;10722;51.910;8.352;2024-01-07T06:11:28;24.27;;;12.10;;
21128;SDS011;10722;51.910;8.352;2024-01-07T06:14:13;23.77;;;11.57;;
21128;SDS011;10722;51.910;8.352;2024-01-07T06:16:58;25.27;;;12.40;;
21128;SDS011;10722;51.910;8.352;2024-01-07T06:19:43;24.20;;;12.00;;
21128;SDS011;10722;51.910;8.352;2024-01-07T06:22:28;25.80;;;11.70;;
21128;SDS011;10722;51.910;8.352;2024-01-07T06:25:13;22.97;;;11.40;;
21128;SDS011;10722;51.910;8.352;2024-01-07T06:27:59;22.83;;;11.03;;
21128;SDS011;10722;51.910;8.352;2024-01-07T06:30:44;25.83;;;12.10;;
21128;SDS011;10722;51.910;8.352;2024-01-07T06:33:29;23.37;;;11.50;;
21128;SDS011;10722;51.910;8.352;2024-01-07T06:36:14;23.07;;;11.67;;
21128;SDS011;10722;51.910;8.352;2024-01-07T06:38:59;23.33;;;11.40;;
21128;SDS011;10722;51.910;8.352;2024-01-07T06:41:44;22.30;;;11.03;;
21128;SDS011;10722;51.910;8.352;2024-01-07T06:44:29;22.43;;;10.50;;
21128;SDS011;10722;51.910;8.352;2024-01-07T06:47:14;22.30;;;11.13;;
21128;SDS011;10722;51.910;8.352;2024-01-07T06:50:00;23.23;;;10.53;;
21128;SDS011;10722;51.910;8.352;2024-01-07T06:52:45;20.37;;;9.80;;
21128;SDS011;10722;51.910;8.352;2024-01-07T06:55:31;21.33;;;10.03;;
21128;SDS011;10722;51.910;8.352;2024-01-07T06:58:16;20.50;;;9.80;;
21128;SDS011;10722;51.910;8.352;2024-01-07T07:01:01;20.80;;;9.90;;
21128;SDS011;10722;51.910;8.352;2024-01-07T07:03:47;21.33;;;9.50;;
21128;SDS011;10722;51.910;8.352;2024-01-07T07:06:32;19.93;;;9.33;;
21128;SDS011;10722;51.910;8.352;2024-01-07T07:09:17;20.60;;;9.13;;
21128;SDS011;10722;51.910;8.352;2024-01-07T07:12:02;19.97;;;10.03;;
21128;SDS011;10722;51.910;8.352;2024-01-07T07:14:48;20.90;;;10.30;;
21128;SDS011;10722;51.910;8.352;2024-01-07T07:17:33;20.70;;;9.70;;
21128;SDS011;10722;51.910;8.352;2024-01-07T07:20:18;18.60;;;9.00;;
21128;SDS011;10722;51.910;8.352;2024-01-07T07:23:03;20.73;;;9.73;;
21128;SDS011;10722;51.910;8.352;2024-01-07T07:25:48;21.23;;;10.33;;
21128;SDS011;10722;51.910;8.352;2024-01-07T07:28:33;21.90;;;9.13;;
21128;SDS011;10722;51.910;8.352;2024-01-07T07:31:19;18.97;;;8.97;;
21128;SDS011;10722;51.910;8.352;2024-01-07T07:34:04;17.80;;;9.13;;
21128;SDS011;10722;51.910;8.352;2024-01-07T07:36:49;19.73;;;9.13;;
21128;SDS011;10722;51.910;8.352;2024-01-07T07:39:34;35.07;;;17.37;;
21128;SDS011;10722;51.910;8.352;2024-01-07T07:42:19;19.40;;;8.47;;
21128;SDS011;10722;51.910;8.352;2024-01-07T07:45:04;18.13;;;8.10;;
21128;SDS011;10722;51.910;8.352;2024-01-07T07:47:50;16.50;;;7.27;;
21128;SDS011;10722;51.910;8.352;2024-01-07T07:50:35;15.00;;;6.57;;
21128;SDS011;10722;51.910;8.352;2024-01-07T07:53:21;16.80;;;6.73;;
21128;SDS011;10722;51.910;8.352;2024-01-07T07:56:06;16.77;;;6.50;;
21128;SDS011;10722;51.910;8.352;2024-01-07T07:58:51;16.57;;;7.03;;
21128;SDS011;10722;51.910;8.352;2024-01-07T08:01:36;16.53;;;6.73;;
21128;SDS011;10722;51.910;8.352;2024-01-07T08:04:21;18.07;;;6.73;;
21128;SDS011;10722;51.910;8.352;2024-01-07T08:07:06;15.00;;;5.80;;
21128;SDS011;10722;51.910;8.352;2024-01-07T08:09:53;17.23;;;6.40;;
21128;SDS011;10722;51.910;8.352;2024-01-07T08:12:37;16.67;;;6.30;;
21128;SDS011;10722;51.910;8.352;2024-01-07T08:15:22;15.00;;;6.20;;
21128;SDS011;10722;51.910;8.352;2024-01-07T08:18:07;21.13;;;6.00;;
21128;SDS011;10722;51.910;8.352;2024-01-07T08:20:53;14.20;;;5.67;;
21128;SDS011;10722;51.910;8.352;2024-01-07T08:23:38;13.50;;;5.40;;
21128;SDS011;10722;51.910;8.352;2024-01-07T08:26:23;17.03;;;6.27;;
21128;SDS011;10722;51.910;8.352;2024-01-07T08:29:08;15.77;;;5.80;;
21128;SDS011;10722;51.910;8.352;2024-01-07T08:31:53;16.60;;;6.00;;
21128;SDS011;10722;51.910;8.352;2024-01-07T08:34:38;13.10;;;5.20;;
21128;SDS011;10722;51.910;8.352;2024-01-07T08:37:23;16.27;;;6.50;;
21128;SDS011;10722;51.910;8.352;2024-01-07T08:40:09;15.60;;;6.73;;
21128;SDS011;10722;51.910;8.352;2024-01-07T08:42:54;13.87;;;5.60;;
21128;SDS011;10722;51.910;8.352;2024-01-07T08:45:39;13.80;;;5.43;;
21128;SDS011;10722;51.910;8.352;2024-01-07T08:48:24;13.97;;;5.50;;
21128;SDS011;10722;51.910;8.352;2024-01-07T08:51:10;16.37;;;6.60;;
21128;SDS011;10722;51.910;8.352;2024-01-07T08:53:57;14.53;;;5.90;;
21128;SDS011;10722;51.910;8.352;2024-01-07T08:56:42;14.03;;;5.60;;
21128;SDS011;10722;51.910;8.352;2024-01-07T08:59:27;12.60;;;5.17;;
21128;SDS011;10722;51.910;8.352;2024-01-07T09:02:12;11.60;;;4.70;;
21128;SDS011;10722;51.910;8.352;2024-01-07T09:04:57;14.63;;;5.23;;
21128;SDS011;10722;51.910;8.352;2024-01-07T09:07:42;14.20;;;4.83;;
21128;SDS011;10722;51.910;8.352;2024-01-07T09:10:27;15.03;;;4.53;;
21128;SDS011;10722;51.910;8.352;2024-01-07T09:13:12;14.67;;;5.47;;
21128;SDS011;10722;51.910;8.352;2024-01-07T09:15:57;15.10;;;4.60;;
21128;SDS011;10722;51.910;8.352;2024-01-07T09:18:43;14.47;;;4.70;;
21128;SDS011;10722;51.910;8.352;2024-01-07T09:21:28;13.63;;;4.63;;
21128;SDS011;10722;51.910;8.352;2024-01-07T09:24:14;15.87;;;5.33;;
21128;SDS011;10722;51.910;8.352;2024-01-07T09:26:59;15.30;;;5.17;;
21128;SDS011;10722;51.910;8.352;2024-01-07T09:29:44;12.33;;;4.97;;
21128;SDS011;10722;51.910;8.352;2024-01-07T09:32:29;13.60;;;5.10;;
21128;SDS011;10722;51.910;8.352;2024-01-07T09:35:14;13.00;;;5.17;;
21128;SDS011;10722;51.910;8.352;2024-01-07T09:38:00;14.10;;;4.70;;
21128;SDS011;10722;51.910;8.352;2024-01-07T09:40:45;13.90;;;4.87;;
21128;SDS011;10722;51.910;8.352;2024-01-07T09:43:30;12.33;;;4.83;;
21128;SDS011;10722;51.910;8.352;2024-01-07T09:46:20;13.10;;;5.10;;
21128;SDS011;10722;51.910;8.352;2024-01-07T09:49:07;14.70;;;5.10;;
21128;SDS011;10722;51.910;8.352;2024-01-07T09:51:52;12.97;;;4.47;;
21128;SDS011;10722;51.910;8.352;2024-01-07T09:54:44;10.93;;;4.20;;
21128;SDS011;10722;51.910;8.352;2024-01-07T09:57:36;12.70;;;4.47;;
21128;SDS011;10722;51.910;8.352;2024-01-07T10:00:28;12.50;;;4.33;;
21128;SDS011;10722;51.910;8.352;2024-01-07T10:03:13;14.30;;;5.23;;
21128;SDS011;10722;51.910;8.352;2024-01-07T10:05:59;11.70;;;4.43;;
21128;SDS011;10722;51.910;8.352;2024-01-07T10:08:44;15.27;;;5.70;;
21128;SDS011;10722;51.910;8.352;2024-01-07T10:11:29;14.37;;;5.03;;
21128;SDS011;10722;51.910;8.352;2024-01-07T10:14:14;13.20;;;4.70;;
21128;SDS011;10722;51.910;8.352;2024-01-07T10:16:59;14.47;;;4.73;;
21128;SDS011;10722;51.910;8.352;2024-01-07T10:19:44;13.53;;;4.77;;
21128;SDS011;10722;51.910;8.352;2024-01-07T10:22:30;13.77;;;4.60;;
21128;SDS011;10722;51.910;8.352;2024-01-07T10:25:16;11.87;;;4.40;;
21128;SDS011;10722;51.910;8.352;2024-01-07T10:28:03;12.67;;;5.03;;
21128;SDS011;10722;51.910;8.352;2024-01-07T10:30:49;12.30;;;4.73;;
21128;SDS011;10722;51.910;8.352;2024-01-07T10:33:34;12.03;;;4.67;;
21128;SDS011;10722;51.910;8.352;2024-01-07T10:36:19;14.70;;;5.13;;
21128;SDS011;10722;51.910;8.352;2024-01-07T10:39:05;16.97;;;5.37;;
21128;SDS011;10722;51.910;8.352;2024-01-07T10:41:51;12.70;;;4.70;;
21128;SDS011;10722;51.910;8.352;2024-01-07T10:44:37;13.80;;;4.47;;
21128;SDS011;10722;51.910;8.352;2024-01-07T10:47:23;14.13;;;4.43;;
21128;SDS011;10722;51.910;8.352;2024-01-07T10:50:14;13.30;;;4.93;;
21128;SDS011;10722;51.910;8.352;2024-01-07T10:53:03;13.60;;;5.30;;
21128;SDS011;10722;51.910;8.352;2024-01-07T10:55:53;13.03;;;4.50;;
21128;SDS011;10722;51.910;8.352;2024-01-07T10:58:44;13.73;;;4.93;;
21128;SDS011;10722;51.910;8.352;2024-01-07T11:01:31;13.90;;;4.90;;
21128;SDS011;10722;51.910;8.352;2024-01-07T11:04:30;13.37;;;4.70;;
21128;SDS011;10722;51.910;8.352;2024-01-07T11:10:37;15.23;;;5.50;;
21128;SDS011;10722;51.910;8.352;2024-01-07T11:13:37;16.40;;;6.03;;
21128;SDS011;10722;51.910;8.352;2024-01-07T11:19:24;13.97;;;4.90;;
21128;SDS011;10722;51.910;8.352;2024-01-07T11:25:27;16.40;;;5.40;;
21128;SDS011;10722;51.910;8.352;2024-01-07T11:28:13;16.57;;;6.10;;
21128;SDS011;10722;51.910;8.352;2024-01-07T11:30:59;17.20;;;4.90;;
21128;SDS011;10722;51.910;8.352;2024-01-07T11:33:48;11.37;;;3.83;;
21128;SDS011;10722;51.910;8.352;2024-01-07T11:36:38;13.83;;;5.10;;
21128;SDS011;10722;51.910;8.352;2024-01-07T11:39:23;16.23;;;5.53;;
21128;SDS011;10722;51.910;8.352;2024-01-07T11:42:08;14.53;;;5.07;;
21128;SDS011;10722;51.910;8.352;2024-01-07T11:44:54;12.33;;;4.27;;
21128;SDS011;10722;51.910;8.352;2024-01-07T11:47:40;12.53;;;4.10;;
21128;SDS011;10722;51.910;8.352;2024-01-07T11:50:25;14.97;;;4.57;;
21128;SDS011;10722;51.910;8.352;2024-01-07T11:53:13;10.80;;;3.90;;
21128;SDS011;10722;51.910;8.352;2024-01-07T11:55:58;11.77;;;4.23;;
21128;SDS011;10722;51.910;8.352;2024-01-07T11:58:43;10.60;;;3.77;;
21128;SDS011;10722;51.910;8.352;2024-01-07T12:01:28;12.07;;;4.60;;
21128;SDS011;10722;51.910;8.352;2024-01-07T12:04:13;12.63;;;4.37;;
21128;SDS011;10722;51.910;8.352;2024-01-07T12:06:59;11.27;;;4.10;;
21128;SDS011;10722;51.910;8.352;2024-01-07T12:09:44;14.30;;;5.27;;
21128;SDS011;10722;51.910;8.352;2024-01-07T12:12:29;12.93;;;4.60;;
21128;SDS011;10722;51.910;8.352;2024-01-07T12:15:14;13.87;;;4.37;;
21128;SDS011;10722;51.910;8.352;2024-01-07T12:18:00;13.67;;;4.60;;
21128;SDS011;10722;51.910;8.352;2024-01-07T12:20:55;12.57;;;5.10;;
21128;SDS011;10722;51.910;8.352;2024-01-07T12:23:41;14.67;;;5.20;;
21128;SDS011;10722;51.910;8.352;2024-01-07T12:26:29;14.97;;;5.97;;
21128;SDS011;10722;51.910;8.352;2024-01-07T12:29:15;15.43;;;5.20;;
21128;SDS011;10722;51.910;8.352;2024-01-07T12:32:00;13.43;;;5.20;;
21128;SDS011;10722;51.910;8.352;2024-01-07T12:34:45;12.73;;;4.30;;
21128;SDS011;10722;51.910;8.352;2024-01-07T12:37:30;11.97;;;4.50;;
21128;SDS011;10722;51.910;8.352;2024-01-07T12:40:15;12.53;;;4.33;;
21128;SDS011;10722;51.910;8.352;2024-01-07T12:43:00;12.83;;;4.63;;
21128;SDS011;10722;51.910;8.352;2024-01-07T12:45:46;12.50;;;4.30;;
21128;SDS011;10722;51.910;8.352;2024-01-07T12:48:32;13.17;;;5.10;;
21128;SDS011;10722;51.910;8.352;2024-01-07T12:51:18;14.57;;;5.60;;
21128;SDS011;10722;51.910;8.352;2024-01-07T12:54:07;14.77;;;5.60;;
21128;SDS011;10722;51.910;8.352;2024-01-07T12:56:52;12.07;;;4.70;;
21128;SDS011;10722;51.910;8.352;2024-01-07T12:59:37;13.60;;;4.87;;
21128;SDS011;10722;51.910;8.352;2024-01-07T13:02:22;13.07;;;4.70;;
21128;SDS011;10722;51.910;8.352;2024-01-07T13:05:08;14.67;;;5.37;;
21128;SDS011;10722;51.910;8.352;2024-01-07T13:07:53;13.07;;;4.90;;
21128;SDS011;10722;51.910;8.352;2024-01-07T13:10:39;23.03;;;9.67;;
21128;SDS011;10722;51.910;8.352;2024-01-07T13:13:24;13.43;;;4.67;;
21128;SDS011;10722;51.910;8.352;2024-01-07T13:16:10;12.07;;;4.13;;
21128;SDS011;10722;51.910;8.352;2024-01-07T13:18:55;12.10;;;4.63;;
21128;SDS011;10722;51.910;8.352;2024-01-07T13:21:40;11.30;;;4.30;;
21128;SDS011;10722;51.910;8.352;2024-01-07T13:24:27;13.00;;;4.60;;
21128;SDS011;10722;51.910;8.352;2024-01-07T13:27:12;12.03;;;4.80;;
21128;SDS011;10722;51.910;8.352;2024-01-07T13:29:57;12.47;;;4.87;;
21128;SDS011;10722;51.910;8.352;2024-01-07T13:32:43;13.57;;;5.00;;
21128;SDS011;10722;51.910;8.352;2024-01-07T13:35:28;13.20;;;4.77;;
21128;SDS011;10722;51.910;8.352;2024-01-07T13:38:13;14.93;;;4.97;;
21128;SDS011;10722;51.910;8.352;2024-01-07T13:40:59;12.83;;;4.90;;
21128;SDS011;10722;51.910;8.352;2024-01-07T13:43:44;13.53;;;4.63;;
21128;SDS011;10722;51.910;8.352;2024-01-07T13:46:29;13.70;;;5.33;;
21128;SDS011;10722;51.910;8.352;2024-01-07T13:49:15;16.07;;;6.10;;
21128;SDS011;10722;51.910;8.352;2024-01-07T13:52:01;13.73;;;5.33;;
21128;SDS011;10722;51.910;8.352;2024-01-07T13:54:46;13.60;;;5.27;;
21128;SDS011;10722;51.910;8.352;2024-01-07T13:57:31;14.10;;;4.83;;
21128;SDS011;10722;51.910;8.352;2024-01-07T14:00:16;14.27;;;5.53;;
21128;SDS011;10722;51.910;8.352;2024-01-07T14:03:02;12.97;;;5.07;;
21128;SDS011;10722;51.910;8.352;2024-01-07T14:05:47;14.13;;;5.37;;
21128;SDS011;10722;51.910;8.352;2024-01-07T14:08:32;13.93;;;5.30;;
21128;SDS011;10722;51.910;8.352;2024-01-07T14:11:17;15.90;;;5.03;;
21128;SDS011;10722;51.910;8.352;2024-01-07T14:14:03;13.07;;;4.53;;
21128;SDS011;10722;51.910;8.352;2024-01-07T14:16:48;14.63;;;5.60;;
21128;SDS011;10722;51.910;8.352;2024-01-07T14:19:33;14.27;;;5.00;;
21128;SDS011;10722;51.910;8.352;2024-01-07T14:22:21;13.80;;;4.97;;
21128;SDS011;10722;51.910;8.352;2024-01-07T14:25:06;13.03;;;4.90;;
21128;SDS011;10722;51.910;8.352;2024-01-07T14:27:52;15.23;;;6.53;;
21128;SDS011;10722;51.910;8.352;2024-01-07T14:30:37;14.97;;;5.63;;
21128;SDS011;10722;51.910;8.352;2024-01-07T14:33:22;19.43;;;7.97;;
21128;SDS011;10722;51.910;8.352;2024-01-07T14:36:07;14.57;;;5.37;;
21128;SDS011;10722;51.910;8.352;2024-01-07T14:38:52;14.30;;;5.13;;
21128;SDS011;10722;51.910;8.352;2024-01-07T14:41:37;13.73;;;4.97;;
21128;SDS011;10722;51.910;8.352;2024-01-07T14:44:22;12.73;;;4.63;;
21128;SDS011;10722;51.910;8.352;2024-01-07T14:47:24;15.47;;;5.97;;
21128;SDS011;10722;51.910;8.352;2024-01-07T14:50:09;15.30;;;6.60;;
21128;SDS011;10722;51.910;8.352;2024-01-07T14:52:54;14.07;;;5.00;;
21128;SDS011;10722;51.910;8.352;2024-01-07T14:55:39;14.73;;;5.40;;
21128;SDS011;10722;51.910;8.352;2024-01-07T14:58:24;15.27;;;6.13;;
21128;SDS011;10722;51.910;8.352;2024-01-07T15:01:10;15.60;;;4.80;;
21128;SDS011;10722;51.910;8.352;2024-01-07T15:03:55;13.83;;;5.10;;
21128;SDS011;10722;51.910;8.352;2024-01-07T15:06:41;14.10;;;4.50;;
21128;SDS011;10722;51.910;8.352;2024-01-07T15:09:27;13.73;;;5.10;;
21128;SDS011;10722;51.910;8.352;2024-01-07T15:12:12;27.57;;;12.53;;
21128;SDS011;10722;51.910;8.352;2024-01-07T15:14:57;17.50;;;7.10;;
21128;SDS011;10722;51.910;8.352;2024-01-07T15:17:42;20.40;;;7.67;;
21128;SDS011;10722;51.910;8.352;2024-01-07T15:20:27;13.83;;;5.30;;
21128;SDS011;10722;51.910;8.352;2024-01-07T15:23:12;15.43;;;5.50;;
21128;SDS011;10722;51.910;8.352;2024-01-07T15:25:57;14.40;;;5.70;;
21128;SDS011;10722;51.910;8.352;2024-01-07T15:28:42;14.97;;;5.80;;
21128;SDS011;10722;51.910;8.352;2024-01-07T15:31:27;15.33;;;5.80;;
21128;SDS011;10722;51.910;8.352;2024-01-07T15:34:13;15.37;;;5.33;;
21128;SDS011;10722;51.910;8.352;2024-01-07T15:36:58;13.50;;;5.03;;
21128;SDS011;10722;51.910;8.352;2024-01-07T15:39:43;13.47;;;4.90;;
21128;SDS011;10722;51.910;8.352;2024-01-07T15:42:28;16.00;;;4.90;;
21128;SDS011;10722;51.910;8.352;2024-01-07T15:45:14;13.17;;;4.70;;
21128;SDS011;10722;51.910;8.352;2024-01-07T15:47:59;13.03;;;4.40;;
21128;SDS011;10722;51.910;8.352;2024-01-07T15:50:44;11.87;;;4.43;;
21128;SDS011;10722;51.910;8.352;2024-01-07T15:53:29;12.40;;;4.30;;
21128;SDS011;10722;51.910;8.352;2024-01-07T15:56:14;15.20;;;5.10;;
21128;SDS011;10722;51.910;8.352;2024-01-07T15:58:59;13.10;;;4.60;;
21128;SDS011;10722;51.910;8.352;2024-01-07T16:01:47;13.27;;;4.47;;
21128;SDS011;10722;51.910;8.352;2024-01-07T16:04:33;13.47;;;4.67;;
21128;SDS011;10722;51.910;8.352;2024-01-07T16:07:18;14.13;;;4.93;;
21128;SDS011;10722;51.910;8.352;2024-01-07T16:10:03;16.90;;;5.43;;
21128;SDS011;10722;51.910;8.352;2024-01-07T16:12:49;15.43;;;5.50;;
21128;SDS011;10722;51.910;8.352;2024-01-07T16:15:34;15.73;;;4.80;;
21128;SDS011;10722;51.910;8.352;2024-01-07T16:18:19;17.13;;;5.33;;
21128;SDS011;10722;51.910;8.352;2024-01-07T16:21:05;13.67;;;4.80;;
21128;SDS011;10722;51.910;8.352;2024-01-07T16:23:50;12.77;;;4.90;;
21128;SDS011;10722;51.910;8.352;2024-01-07T16:26:35;12.60;;;4.77;;
21128;SDS011;10722;51.910;8.352;2024-01-07T16:29:19;12.87;;;4.57;;